sensor_id;sensor_type;location;lat;lon;timestamp;P1;durP1;ratioP1;P2;durP2;ratioP2
10041;SDS011;5061;49.068;12.058;2023-08-01T00:01:59;3.70;;;1.80;;
10041;SDS011;5061;49.068;12.058;2023-08-01T00:05:19;2.87;;;2.00;;
10041;SDS011;5061;49.068;12.058;2023-08-01T00:08:40;3.43;;;1.97;;
10041;SDS011;5061;49.068;12.058;2023-08-01T00:12:01;2.13;;;1.70;;
10041;SDS011;5061;49.068;12.058;2023-08-01T00:15:21;2.33;;;2.13;;
10041;SDS011;5061;49.068;12.058;2023-08-01T00:18:42;3.10;;;2.53;;
10041;SDS011;5061;49.068;12.058;2023-08-01T00:22:03;3.77;;;1.80;;
10041;SDS011;5061;49.068;12.058;2023-08-01T00:25:24;2.33;;;2.10;;
10041;SDS011;5061;49.068;12.058;2023-08-01T00:28:44;3.17;;;2.27;;
10041;SDS011;5061;49.068;12.058;2023-08-01T00:32:05;2.00;;;1.77;;
10041;SDS011;5061;49.068;12.058;2023-08-01T00:35:26;2.30;;;2.10;;
10041;SDS011;5061;49.068;12.058;2023-08-01T00:38:46;2.27;;;1.93;;
10041;SDS011;5061;49.068;12.058;2023-08-01T00:42:08;2.70;;;2.30;;
10041;SDS011;5061;49.068;12.058;2023-08-01T00:45:29;2.10;;;1.90;;
10041;SDS011;5061;49.068;12.058;2023-08-01T00:48:50;3.20;;;2.47;;
10041;SDS011;5061;49.068;12.058;2023-08-01T00:52:11;2.83;;;2.03;;
10041;SDS011;5061;49.068;12.058;2023-08-01T00:55:33;2.03;;;1.83;;
10041;SDS011;5061;49.068;12.058;2023-08-01T00:58:54;3.00;;;2.07;;
10041;SDS011;5061;49.068;12.058;2023-08-01T01:02:15;2.17;;;1.73;;
10041;SDS011;5061;49.068;12.058;2023-08-01T01:05:36;2.90;;;1.90;;
10041;SDS011;5061;49.068;12.058;2023-08-01T01:08:58;4.37;;;2.50;;
10041;SDS011;5061;49.068;12.058;2023-08-01T01:12:19;2.20;;;2.00;;
10041;SDS011;5061;49.068;12.058;2023-08-01T01:15:40;3.00;;;2.10;;
10041;SDS011;5061;49.068;12.058;2023-08-01T01:19:00;4.63;;;2.80;;
10041;SDS011;5061;49.068;12.058;2023-08-01T01:22:21;2.70;;;2.03;;
10041;SDS011;5061;49.068;12.058;2023-08-01T01:25:42;2.40;;;1.80;;
10041;SDS011;5061;49.068;12.058;2023-08-01T01:29:03;3.60;;;2.40;;
10041;SDS011;5061;49.068;12.058;2023-08-01T01:32:25;4.90;;;2.40;;
10041;SDS011;5061;49.068;12.058;2023-08-01T01:35:46;3.80;;;2.30;;
10041;SDS011;5061;49.068;12.058;2023-08-01T01:39:07;2.30;;;2.10;;
10041;SDS011;5061;49.068;12.058;2023-08-01T01:42:28;2.30;;;2.13;;
10041;SDS011;5061;49.068;12.058;2023-08-01T01:45:49;2.90;;;2.17;;
10041;SDS011;5061;49.068;12.058;2023-08-01T01:49:09;3.40;;;2.60;;
10041;SDS011;5061;49.068;12.058;2023-08-01T01:52:30;6.37;;;2.87;;
10041;SDS011;5061;49.068;12.058;2023-08-01T01:55:51;3.43;;;2.93;;
10041;SDS011;5061;49.068;12.058;2023-08-01T01:59:11;4.07;;;2.70;;
10041;SDS011;5061;49.068;12.058;2023-08-01T02:02:32;3.20;;;2.50;;
10041;SDS011;5061;49.068;12.058;2023-08-01T02:05:52;2.93;;;2.60;;
10041;SDS011;5061;49.068;12.058;2023-08-01T02:09:13;3.10;;;2.37;;
10041;SDS011;5061;49.068;12.058;2023-08-01T02:12:34;3.00;;;2.50;;
10041;SDS011;5061;49.068;12.058;2023-08-01T02:15:55;2.67;;;2.17;;
10041;SDS011;5061;49.068;12.058;2023-08-01T02:19:16;3.90;;;2.77;;
10041;SDS011;5061;49.068;12.058;2023-08-01T02:22:36;3.03;;;2.60;;
10041;SDS011;5061;49.068;12.058;2023-08-01T02:25:57;4.73;;;3.20;;
10041;SDS011;5061;49.068;12.058;2023-08-01T02:29:17;3.90;;;2.87;;
10041;SDS011;5061;49.068;12.058;2023-08-01T02:32:38;3.43;;;2.70;;
10041;SDS011;5061;49.068;12.058;2023-08-01T02:35:59;6.87;;;2.40;;
10041;SDS011;5061;49.068;12.058;2023-08-01T02:39:19;3.37;;;2.60;;
10041;SDS011;5061;49.068;12.058;2023-08-01T02:42:40;2.87;;;2.20;;
10041;SDS011;5061;49.068;12.058;2023-08-01T02:46:00;3.23;;;2.27;;
10041;SDS011;5061;49.068;12.058;2023-08-01T02:49:21;2.80;;;2.30;;
10041;SDS011;5061;49.068;12.058;2023-08-01T02:52:42;2.67;;;2.30;;
10041;SDS011;5061;49.068;12.058;2023-08-01T02:56:02;2.50;;;2.30;;
10041;SDS011;5061;49.068;12.058;2023-08-01T02:59:24;3.33;;;2.63;;
10041;SDS011;5061;49.068;12.058;2023-08-01T03:02:45;1.83;;;1.67;;
10041;SDS011;5061;49.068;12.058;2023-08-01T03:06:06;3.03;;;2.30;;
10041;SDS011;5061;49.068;12.058;2023-08-01T03:09:27;4.30;;;2.20;;
10041;SDS011;5061;49.068;12.058;2023-08-01T03:12:48;9.73;;;2.87;;
10041;SDS011;5061;49.068;12.058;2023-08-01T03:16:08;2.80;;;2.37;;
10041;SDS011;5061;49.068;12.058;2023-08-01T03:19:30;3.37;;;3.00;;
10041;SDS011;5061;49.068;12.058;2023-08-01T03:22:51;5.43;;;3.30;;
10041;SDS011;5061;49.068;12.058;2023-08-01T03:26:11;3.20;;;2.37;;
10041;SDS011;5061;49.068;12.058;2023-08-01T03:29:32;3.43;;;2.20;;
10041;SDS011;5061;49.068;12.058;2023-08-01T03:32:53;4.60;;;2.70;;
10041;SDS011;5061;49.068;12.058;2023-08-01T03:36:13;4.77;;;2.40;;
10041;SDS011;5061;49.068;12.058;2023-08-01T03:39:34;2.60;;;2.07;;
10041;SDS011;5061;49.068;12.058;2023-08-01T03:42:55;3.23;;;2.40;;
10041;SDS011;5061;49.068;12.058;2023-08-01T03:46:15;3.20;;;2.60;;
10041;SDS011;5061;49.068;12.058;2023-08-01T03:49:36;2.20;;;2.00;;
10041;SDS011;5061;49.068;12.058;2023-08-01T03:52:58;2.53;;;2.00;;
10041;SDS011;5061;49.068;12.058;2023-08-01T03:56:19;3.00;;;2.50;;
10041;SDS011;5061;49.068;12.058;2023-08-01T03:59:39;3.40;;;2.40;;
10041;SDS011;5061;49.068;12.058;2023-08-01T04:03:00;3.80;;;2.40;;
10041;SDS011;5061;49.068;12.058;2023-08-01T04:06:21;3.50;;;2.40;;
10041;SDS011;5061;49.068;12.058;2023-08-01T04:09:42;2.50;;;2.10;;
10041;SDS011;5061;49.068;12.058;2023-08-01T04:13:02;2.47;;;2.27;;
10041;SDS011;5061;49.068;12.058;2023-08-01T04:16:23;2.50;;;2.00;;
10041;SDS011;5061;49.068;12.058;2023-08-01T04:19:44;2.40;;;2.20;;
10041;SDS011;5061;49.068;12.058;2023-08-01T04:23:05;3.30;;;2.57;;
10041;SDS011;5061;49.068;12.058;2023-08-01T04:26:25;5.37;;;3.20;;
10041;SDS011;5061;49.068;12.058;2023-08-01T04:29:47;4.67;;;3.10;;
10041;SDS011;5061;49.068;12.058;2023-08-01T04:33:07;3.17;;;2.80;;
10041;SDS011;5061;49.068;12.058;2023-08-01T04:36:28;4.80;;;2.90;;
10041;SDS011;5061;49.068;12.058;2023-08-01T04:39:49;3.17;;;2.57;;
10041;SDS011;5061;49.068;12.058;2023-08-01T04:43:09;3.53;;;2.60;;
10041;SDS011;5061;49.068;12.058;2023-08-01T04:46:31;3.10;;;2.40;;
10041;SDS011;5061;49.068;12.058;2023-08-01T04:49:52;3.43;;;2.60;;
10041;SDS011;5061;49.068;12.058;2023-08-01T04:53:13;3.40;;;2.63;;
10041;SDS011;5061;49.068;12.058;2023-08-01T04:56:33;3.43;;;2.33;;
10041;SDS011;5061;49.068;12.058;2023-08-01T04:59:54;2.73;;;2.50;;
10041;SDS011;5061;49.068;12.058;2023-08-01T05:03:14;4.77;;;2.57;;
10041;SDS011;5061;49.068;12.058;2023-08-01T05:06:35;2.63;;;2.33;;
10041;SDS011;5061;49.068;12.058;2023-08-01T05:09:55;3.60;;;2.83;;
10041;SDS011;5061;49.068;12.058;2023-08-01T05:13:16;3.30;;;2.63;;
10041;SDS011;5061;49.068;12.058;2023-08-01T05:16:37;2.53;;;2.33;;
10041;SDS011;5061;49.068;12.058;2023-08-01T05:19:57;7.13;;;3.70;;
10041;SDS011;5061;49.068;12.058;2023-08-01T05:23:18;5.20;;;3.50;;
10041;SDS011;5061;49.068;12.058;2023-08-01T05:26:38;2.37;;;2.17;;
10041;SDS011;5061;49.068;12.058;2023-08-01T05:29:59;4.47;;;3.53;;
10041;SDS011;5061;49.068;12.058;2023-08-01T05:33:20;4.10;;;3.10;;
10041;SDS011;5061;49.068;12.058;2023-08-01T05:36:40;3.63;;;2.57;;
10041;SDS011;5061;49.068;12.058;2023-08-01T05:40:04;3.90;;;3.07;;
10041;SDS011;5061;49.068;12.058;2023-08-01T05:43:25;3.90;;;2.90;;
10041;SDS011;5061;49.068;12.058;2023-08-01T05:46:45;4.73;;;3.13;;
10041;SDS011;5061;49.068;12.058;2023-08-01T05:50:06;6.43;;;3.30;;
10041;SDS011;5061;49.068;12.058;2023-08-01T05:53:27;4.13;;;2.90;;
10041;SDS011;5061;49.068;12.058;2023-08-01T05:56:48;3.60;;;2.93;;
10041;SDS011;5061;49.068;12.058;2023-08-01T06:00:09;5.43;;;2.73;;
10041;SDS011;5061;49.068;12.058;2023-08-01T06:03:30;4.23;;;3.70;;
10041;SDS011;5061;49.068;12.058;2023-08-01T06:06:51;4.90;;;3.10;;
10041;SDS011;5061;49.068;12.058;2023-08-01T06:10:11;4.67;;;3.27;;
10041;SDS011;5061;49.068;12.058;2023-08-01T06:13:32;3.90;;;2.97;;
10041;SDS011;5061;49.068;12.058;2023-08-01T06:16:53;4.17;;;2.80;;
10041;SDS011;5061;49.068;12.058;2023-08-01T06:20:13;4.53;;;3.00;;
10041;SDS011;5061;49.068;12.058;2023-08-01T06:23:34;3.30;;;2.43;;
10041;SDS011;5061;49.068;12.058;2023-08-01T06:26:55;3.83;;;2.60;;
10041;SDS011;5061;49.068;12.058;2023-08-01T06:30:15;3.93;;;3.10;;
10041;SDS011;5061;49.068;12.058;2023-08-01T06:33:36;3.50;;;2.70;;
10041;SDS011;5061;49.068;12.058;2023-08-01T06:36:56;4.03;;;3.10;;
10041;SDS011;5061;49.068;12.058;2023-08-01T06:40:17;3.03;;;2.73;;
10041;SDS011;5061;49.068;12.058;2023-08-01T06:43:38;3.10;;;2.53;;
10041;SDS011;5061;49.068;12.058;2023-08-01T06:46:58;3.20;;;2.60;;
10041;SDS011;5061;49.068;12.058;2023-08-01T06:50:19;3.17;;;2.70;;
10041;SDS011;5061;49.068;12.058;2023-08-01T06:53:39;3.93;;;3.10;;
10041;SDS011;5061;49.068;12.058;2023-08-01T06:57:00;6.13;;;2.70;;
10041;SDS011;5061;49.068;12.058;2023-08-01T07:00:21;3.83;;;2.60;;
10041;SDS011;5061;49.068;12.058;2023-08-01T07:03:41;4.33;;;3.00;;
10041;SDS011;5061;49.068;12.058;2023-08-01T07:07:02;2.87;;;2.27;;
10041;SDS011;5061;49.068;12.058;2023-08-01T07:10:23;2.40;;;2.20;;
10041;SDS011;5061;49.068;12.058;2023-08-01T07:13:44;3.90;;;2.50;;
10041;SDS011;5061;49.068;12.058;2023-08-01T07:17:04;2.57;;;2.23;;
10041;SDS011;5061;49.068;12.058;2023-08-01T07:20:25;3.37;;;2.73;;
10041;SDS011;5061;49.068;12.058;2023-08-01T07:23:46;3.40;;;2.90;;
10041;SDS011;5061;49.068;12.058;2023-08-01T07:27:08;5.03;;;2.77;;
10041;SDS011;5061;49.068;12.058;2023-08-01T07:30:29;2.80;;;2.43;;
10041;SDS011;5061;49.068;12.058;2023-08-01T07:33:49;3.13;;;2.70;;
10041;SDS011;5061;49.068;12.058;2023-08-01T07:37:10;4.07;;;2.23;;
10041;SDS011;5061;49.068;12.058;2023-08-01T07:40:31;2.23;;;2.03;;
10041;SDS011;5061;49.068;12.058;2023-08-01T07:43:51;2.40;;;2.10;;
10041;SDS011;5061;49.068;12.058;2023-08-01T07:47:12;3.17;;;2.30;;
10041;SDS011;5061;49.068;12.058;2023-08-01T07:50:32;2.40;;;1.90;;
10041;SDS011;5061;49.068;12.058;2023-08-01T07:53:54;2.73;;;2.30;;
10041;SDS011;5061;49.068;12.058;2023-08-01T07:57:15;3.43;;;2.20;;
10041;SDS011;5061;49.068;12.058;2023-08-01T08:00:36;4.47;;;3.40;;
10041;SDS011;5061;49.068;12.058;2023-08-01T08:03:57;4.83;;;2.83;;
10041;SDS011;5061;49.068;12.058;2023-08-01T08:07:17;3.70;;;3.03;;
10041;SDS011;5061;49.068;12.058;2023-08-01T08:10:38;3.23;;;2.93;;
10041;SDS011;5061;49.068;12.058;2023-08-01T08:13:59;3.77;;;3.00;;
10041;SDS011;5061;49.068;12.058;2023-08-01T08:17:19;2.37;;;2.17;;
10041;SDS011;5061;49.068;12.058;2023-08-01T08:20:44;3.80;;;2.30;;
10041;SDS011;5061;49.068;12.058;2023-08-01T08:24:05;3.30;;;3.00;;
10041;SDS011;5061;49.068;12.058;2023-08-01T08:27:25;3.70;;;3.07;;
10041;SDS011;5061;49.068;12.058;2023-08-01T08:30:46;2.60;;;2.40;;
10041;SDS011;5061;49.068;12.058;2023-08-01T08:34:07;5.50;;;3.40;;
10041;SDS011;5061;49.068;12.058;2023-08-01T08:37:28;4.93;;;3.40;;
10041;SDS011;5061;49.068;12.058;2023-08-01T08:41:10;4.10;;;2.60;;
10041;SDS011;5061;49.068;12.058;2023-08-01T08:44:30;3.83;;;2.90;;
10041;SDS011;5061;49.068;12.058;2023-08-01T08:47:59;3.63;;;2.73;;
10041;SDS011;5061;49.068;12.058;2023-08-01T08:52:22;3.53;;;2.40;;
10041;SDS011;5061;49.068;12.058;2023-08-01T08:56:01;2.70;;;2.43;;
10041;SDS011;5061;49.068;12.058;2023-08-01T08:59:22;3.43;;;2.37;;
10041;SDS011;5061;49.068;12.058;2023-08-01T09:02:45;4.10;;;2.90;;
10041;SDS011;5061;49.068;12.058;2023-08-01T09:06:09;3.97;;;2.83;;
10041;SDS011;5061;49.068;12.058;2023-08-01T09:09:34;3.50;;;2.60;;
10041;SDS011;5061;49.068;12.058;2023-08-01T09:12:55;4.37;;;3.70;;
10041;SDS011;5061;49.068;12.058;2023-08-01T09:16:16;3.50;;;2.63;;
10041;SDS011;5061;49.068;12.058;2023-08-01T09:19:36;3.33;;;2.60;;
10041;SDS011;5061;49.068;12.058;2023-08-01T09:22:57;3.60;;;2.90;;
10041;SDS011;5061;49.068;12.058;2023-08-01T09:26:19;2.50;;;2.30;;
10041;SDS011;5061;49.068;12.058;2023-08-01T09:29:40;3.90;;;2.97;;
10041;SDS011;5061;49.068;12.058;2023-08-01T09:33:00;3.97;;;3.20;;
10041;SDS011;5061;49.068;12.058;2023-08-01T09:36:21;3.23;;;2.60;;
10041;SDS011;5061;49.068;12.058;2023-08-01T09:39:43;6.10;;;3.63;;
10041;SDS011;5061;49.068;12.058;2023-08-01T09:43:06;4.30;;;2.97;;
10041;SDS011;5061;49.068;12.058;2023-08-01T09:46:27;2.73;;;1.77;;
10041;SDS011;5061;49.068;12.058;2023-08-01T09:49:48;3.30;;;2.40;;
10041;SDS011;5061;49.068;12.058;2023-08-01T09:53:14;4.20;;;3.20;;
10041;SDS011;5061;49.068;12.058;2023-08-01T09:56:34;5.13;;;3.40;;
10041;SDS011;5061;49.068;12.058;2023-08-01T09:59:58;3.27;;;2.70;;
10041;SDS011;5061;49.068;12.058;2023-08-01T10:03:20;4.90;;;3.40;;
10041;SDS011;5061;49.068;12.058;2023-08-01T10:06:42;3.73;;;2.93;;
10041;SDS011;5061;49.068;12.058;2023-08-01T10:10:05;5.13;;;3.57;;
10041;SDS011;5061;49.068;12.058;2023-08-01T10:13:26;7.43;;;3.30;;
10041;SDS011;5061;49.068;12.058;2023-08-01T10:16:48;5.17;;;3.70;;
10041;SDS011;5061;49.068;12.058;2023-08-01T10:20:11;5.70;;;3.40;;
10041;SDS011;5061;49.068;12.058;2023-08-01T10:23:49;6.80;;;3.60;;
10041;SDS011;5061;49.068;12.058;2023-08-01T10:27:12;4.40;;;3.80;;
10041;SDS011;5061;49.068;12.058;2023-08-01T10:30:33;3.70;;;3.10;;
10041;SDS011;5061;49.068;12.058;2023-08-01T10:34:03;4.17;;;2.97;;
10041;SDS011;5061;49.068;12.058;2023-08-01T10:37:42;3.50;;;3.00;;
10041;SDS011;5061;49.068;12.058;2023-08-01T10:41:04;5.00;;;3.90;;
10041;SDS011;5061;49.068;12.058;2023-08-01T10:44:25;4.67;;;3.20;;
10041;SDS011;5061;49.068;12.058;2023-08-01T10:47:47;3.00;;;2.70;;
10041;SDS011;5061;49.068;12.058;2023-08-01T10:51:08;3.43;;;3.13;;
10041;SDS011;5061;49.068;12.058;2023-08-01T10:54:29;3.73;;;3.00;;
10041;SDS011;5061;49.068;12.058;2023-08-01T10:57:50;4.10;;;3.27;;
10041;SDS011;5061;49.068;12.058;2023-08-01T11:01:10;4.93;;;3.53;;
10041;SDS011;5061;49.068;12.058;2023-08-01T11:04:31;4.83;;;3.23;;
10041;SDS011;5061;49.068;12.058;2023-08-01T11:08:01;4.73;;;3.07;;
10041;SDS011;5061;49.068;12.058;2023-08-01T11:11:23;4.90;;;3.63;;
10041;SDS011;5061;49.068;12.058;2023-08-01T11:14:44;3.63;;;3.13;;
10041;SDS011;5061;49.068;12.058;2023-08-01T11:18:08;3.83;;;3.27;;
10041;SDS011;5061;49.068;12.058;2023-08-01T11:21:29;4.37;;;3.03;;
10041;SDS011;5061;49.068;12.058;2023-08-01T11:24:50;4.77;;;3.67;;
10041;SDS011;5061;49.068;12.058;2023-08-01T11:28:15;3.80;;;3.10;;
10041;SDS011;5061;49.068;12.058;2023-08-01T11:31:37;4.57;;;3.43;;
10041;SDS011;5061;49.068;12.058;2023-08-01T11:34:57;4.03;;;3.17;;
10041;SDS011;5061;49.068;12.058;2023-08-01T11:38:18;4.60;;;3.20;;
10041;SDS011;5061;49.068;12.058;2023-08-01T11:41:39;3.60;;;3.13;;
10041;SDS011;5061;49.068;12.058;2023-08-01T11:45:12;4.77;;;3.07;;
10041;SDS011;5061;49.068;12.058;2023-08-01T11:48:33;4.27;;;3.53;;
10041;SDS011;5061;49.068;12.058;2023-08-01T11:51:54;5.00;;;3.90;;
10041;SDS011;5061;49.068;12.058;2023-08-01T11:55:18;4.37;;;3.67;;
10041;SDS011;5061;49.068;12.058;2023-08-01T11:58:41;6.80;;;3.97;;
10041;SDS011;5061;49.068;12.058;2023-08-01T12:02:01;5.57;;;3.43;;
10041;SDS011;5061;49.068;12.058;2023-08-01T12:05:23;4.07;;;3.00;;
10041;SDS011;5061;49.068;12.058;2023-08-01T12:08:44;4.27;;;3.50;;
10041;SDS011;5061;49.068;12.058;2023-08-01T12:12:06;4.70;;;3.03;;
10041;SDS011;5061;49.068;12.058;2023-08-01T12:15:28;6.63;;;3.70;;
10041;SDS011;5061;49.068;12.058;2023-08-01T12:18:49;5.03;;;3.60;;
10041;SDS011;5061;49.068;12.058;2023-08-01T12:22:09;3.40;;;2.80;;
10041;SDS011;5061;49.068;12.058;2023-08-01T12:25:30;3.20;;;2.90;;
10041;SDS011;5061;49.068;12.058;2023-08-01T12:28:51;4.30;;;3.27;;
10041;SDS011;5061;49.068;12.058;2023-08-01T12:32:11;5.17;;;3.03;;
10041;SDS011;5061;49.068;12.058;2023-08-01T12:35:34;4.80;;;3.10;;
10041;SDS011;5061;49.068;12.058;2023-08-01T12:38:54;3.70;;;2.57;;
10041;SDS011;5061;49.068;12.058;2023-08-01T12:42:15;3.20;;;2.53;;
10041;SDS011;5061;49.068;12.058;2023-08-01T12:45:35;4.53;;;3.03;;
10041;SDS011;5061;49.068;12.058;2023-08-01T12:48:56;5.13;;;2.77;;
10041;SDS011;5061;49.068;12.058;2023-08-01T12:52:23;3.60;;;2.53;;
10041;SDS011;5061;49.068;12.058;2023-08-01T12:55:45;4.40;;;2.60;;
10041;SDS011;5061;49.068;12.058;2023-08-01T12:59:06;3.30;;;2.87;;
10041;SDS011;5061;49.068;12.058;2023-08-01T13:02:28;3.47;;;2.87;;
10041;SDS011;5061;49.068;12.058;2023-08-01T13:05:49;2.83;;;2.40;;
10041;SDS011;5061;49.068;12.058;2023-08-01T13:09:09;4.93;;;2.93;;
10041;SDS011;5061;49.068;12.058;2023-08-01T13:12:31;2.90;;;2.33;;
10041;SDS011;5061;49.068;12.058;2023-08-01T13:15:52;3.63;;;2.73;;
10041;SDS011;5061;49.068;12.058;2023-08-01T13:19:13;5.00;;;2.80;;
10041;SDS011;5061;49.068;12.058;2023-08-01T13:22:33;2.20;;;2.00;;
10041;SDS011;5061;49.068;12.058;2023-08-01T13:25:54;2.30;;;2.10;;
10041;SDS011;5061;49.068;12.058;2023-08-01T13:29:14;3.53;;;2.30;;
10041;SDS011;5061;49.068;12.058;2023-08-01T13:32:35;4.67;;;2.40;;
10041;SDS011;5061;49.068;12.058;2023-08-01T13:35:56;2.30;;;1.80;;
10041;SDS011;5061;49.068;12.058;2023-08-01T13:39:18;2.40;;;2.20;;
10041;SDS011;5061;49.068;12.058;2023-08-01T13:42:39;1.97;;;1.80;;
10041;SDS011;5061;49.068;12.058;2023-08-01T13:46:07;2.03;;;1.83;;
10041;SDS011;5061;49.068;12.058;2023-08-01T13:49:37;2.10;;;1.90;;
10041;SDS011;5061;49.068;12.058;2023-08-01T13:52:58;2.00;;;1.80;;
10041;SDS011;5061;49.068;12.058;2023-08-01T13:56:19;1.93;;;1.73;;
10041;SDS011;5061;49.068;12.058;2023-08-01T13:59:41;2.47;;;2.13;;
10041;SDS011;5061;49.068;12.058;2023-08-01T14:03:02;2.60;;;1.97;;
10041;SDS011;5061;49.068;12.058;2023-08-01T14:06:23;1.63;;;1.53;;
10041;SDS011;5061;49.068;12.058;2023-08-01T14:09:44;2.00;;;1.80;;
10041;SDS011;5061;49.068;12.058;2023-08-01T14:13:04;2.10;;;1.80;;
10041;SDS011;5061;49.068;12.058;2023-08-01T14:16:25;3.77;;;2.20;;
10041;SDS011;5061;49.068;12.058;2023-08-01T14:19:46;2.30;;;1.90;;
10041;SDS011;5061;49.068;12.058;2023-08-01T14:23:06;2.40;;;2.03;;
10041;SDS011;5061;49.068;12.058;2023-08-01T14:26:28;1.90;;;1.70;;
10041;SDS011;5061;49.068;12.058;2023-08-01T14:29:49;2.90;;;1.73;;
10041;SDS011;5061;49.068;12.058;2023-08-01T14:33:10;1.90;;;1.60;;
10041;SDS011;5061;49.068;12.058;2023-08-01T14:36:30;1.97;;;1.40;;
10041;SDS011;5061;49.068;12.058;2023-08-01T14:39:51;4.10;;;1.80;;
10041;SDS011;5061;49.068;12.058;2023-08-01T14:43:12;2.43;;;1.57;;
10041;SDS011;5061;49.068;12.058;2023-08-01T14:46:32;2.00;;;1.60;;
10041;SDS011;5061;49.068;12.058;2023-08-01T14:49:55;2.20;;;1.50;;
10041;SDS011;5061;49.068;12.058;2023-08-01T14:53:16;2.27;;;1.10;;
10041;SDS011;5061;49.068;12.058;2023-08-01T14:56:37;3.30;;;1.60;;
10041;SDS011;5061;49.068;12.058;2023-08-01T14:59:58;1.63;;;1.50;;
10041;SDS011;5061;49.068;12.058;2023-08-01T15:03:19;1.93;;;1.50;;
10041;SDS011;5061;49.068;12.058;2023-08-01T15:06:39;2.00;;;1.20;;
10041;SDS011;5061;49.068;12.058;2023-08-01T15:10:00;1.40;;;1.30;;
10041;SDS011;5061;49.068;12.058;2023-08-01T15:13:20;1.30;;;1.20;;
10041;SDS011;5061;49.068;12.058;2023-08-01T15:16:41;1.27;;;1.17;;
10041;SDS011;5061;49.068;12.058;2023-08-01T15:20:02;1.30;;;1.20;;
10041;SDS011;5061;49.068;12.058;2023-08-01T15:23:23;2.50;;;1.13;;
10041;SDS011;5061;49.068;12.058;2023-08-01T15:26:44;1.87;;;1.40;;
10041;SDS011;5061;49.068;12.058;2023-08-01T15:30:05;2.30;;;1.13;;
10041;SDS011;5061;49.068;12.058;2023-08-01T15:33:26;0.97;;;0.90;;
10041;SDS011;5061;49.068;12.058;2023-08-01T15:36:47;0.97;;;0.87;;
10041;SDS011;5061;49.068;12.058;2023-08-01T15:40:08;1.93;;;1.23;;
10041;SDS011;5061;49.068;12.058;2023-08-01T15:43:29;1.20;;;1.10;;
10041;SDS011;5061;49.068;12.058;2023-08-01T15:46:53;2.13;;;1.27;;
10041;SDS011;5061;49.068;12.058;2023-08-01T15:50:16;2.30;;;1.50;;
10041;SDS011;5061;49.068;12.058;2023-08-01T15:53:37;1.40;;;1.10;;
10041;SDS011;5061;49.068;12.058;2023-08-01T15:56:58;1.10;;;1.00;;
10041;SDS011;5061;49.068;12.058;2023-08-01T19:09:37;1.20;;;1.10;;
10041;SDS011;5061;49.068;12.058;2023-08-01T19:12:58;1.00;;;0.90;;
10041;SDS011;5061;49.068;12.058;2023-08-01T19:16:19;1.13;;;1.03;;
10041;SDS011;5061;49.068;12.058;2023-08-01T19:19:41;1.10;;;1.00;;
10041;SDS011;5061;49.068;12.058;2023-08-01T19:23:03;1.63;;;0.90;;
10041;SDS011;5061;49.068;12.058;2023-08-01T19:26:24;1.00;;;0.90;;
10041;SDS011;5061;49.068;12.058;2023-08-01T19:29:51;1.17;;;1.07;;
10041;SDS011;5061;49.068;12.058;2023-08-01T19:33:12;1.10;;;1.00;;
10041;SDS011;5061;49.068;12.058;2023-08-01T19:36:33;1.93;;;1.10;;
10041;SDS011;5061;49.068;12.058;2023-08-01T19:39:54;1.67;;;0.87;;
10041;SDS011;5061;49.068;12.058;2023-08-01T19:43:14;1.00;;;0.90;;
10041;SDS011;5061;49.068;12.058;2023-08-01T19:46:35;1.40;;;1.17;;
10041;SDS011;5061;49.068;12.058;2023-08-01T19:49:56;0.80;;;0.80;;
10041;SDS011;5061;49.068;12.058;2023-08-01T19:53:16;1.27;;;1.07;;
10041;SDS011;5061;49.068;12.058;2023-08-01T19:56:37;0.90;;;0.80;;
10041;SDS011;5061;49.068;12.058;2023-08-01T19:59:58;2.03;;;1.10;;
10041;SDS011;5061;49.068;12.058;2023-08-01T20:03:18;0.90;;;0.90;;
10041;SDS011;5061;49.068;12.058;2023-08-01T20:06:39;1.43;;;1.00;;
10041;SDS011;5061;49.068;12.058;2023-08-01T20:10:00;1.10;;;1.00;;
10041;SDS011;5061;49.068;12.058;2023-08-01T20:13:21;2.30;;;1.23;;
10041;SDS011;5061;49.068;12.058;2023-08-01T20:16:44;1.67;;;1.40;;
10041;SDS011;5061;49.068;12.058;2023-08-01T20:20:05;3.13;;;1.40;;
10041;SDS011;5061;49.068;12.058;2023-08-01T20:23:26;3.87;;;1.50;;
10041;SDS011;5061;49.068;12.058;2023-08-01T20:26:48;1.83;;;1.73;;
10041;SDS011;5061;49.068;12.058;2023-08-01T20:30:09;1.83;;;1.50;;
10041;SDS011;5061;49.068;12.058;2023-08-01T20:33:33;2.20;;;1.70;;
10041;SDS011;5061;49.068;12.058;2023-08-01T20:36:54;3.87;;;1.17;;
10041;SDS011;5061;49.068;12.058;2023-08-01T20:40:15;1.20;;;1.10;;
10041;SDS011;5061;49.068;12.058;2023-08-01T20:43:37;2.33;;;1.40;;
10041;SDS011;5061;49.068;12.058;2023-08-01T20:47:03;3.93;;;2.40;;
10041;SDS011;5061;49.068;12.058;2023-08-01T20:50:28;2.97;;;1.73;;
10041;SDS011;5061;49.068;12.058;2023-08-01T20:53:48;4.10;;;1.73;;
10041;SDS011;5061;49.068;12.058;2023-08-01T20:57:09;1.57;;;1.47;;
10041;SDS011;5061;49.068;12.058;2023-08-01T21:00:32;1.30;;;1.20;;
10041;SDS011;5061;49.068;12.058;2023-08-01T21:03:52;1.00;;;0.90;;
10041;SDS011;5061;49.068;12.058;2023-08-01T21:07:13;1.27;;;1.17;;
10041;SDS011;5061;49.068;12.058;2023-08-01T21:10:33;1.23;;;1.13;;
10041;SDS011;5061;49.068;12.058;2023-08-01T21:13:54;1.40;;;1.30;;
10041;SDS011;5061;49.068;12.058;2023-08-01T21:17:15;1.73;;;1.37;;
10041;SDS011;5061;49.068;12.058;2023-08-01T21:20:36;1.33;;;1.23;;
10041;SDS011;5061;49.068;12.058;2023-08-01T21:24:00;1.40;;;1.20;;
10041;SDS011;5061;49.068;12.058;2023-08-01T21:27:20;1.20;;;1.00;;
10041;SDS011;5061;49.068;12.058;2023-08-01T21:30:41;1.57;;;1.10;;
10041;SDS011;5061;49.068;12.058;2023-08-01T21:34:06;1.20;;;1.10;;
10041;SDS011;5061;49.068;12.058;2023-08-01T21:37:27;1.10;;;1.00;;
10041;SDS011;5061;49.068;12.058;2023-08-01T21:40:47;1.50;;;1.30;;
10041;SDS011;5061;49.068;12.058;2023-08-01T21:44:08;1.23;;;1.13;;
10041;SDS011;5061;49.068;12.058;2023-08-01T21:47:29;1.20;;;1.10;;
10041;SDS011;5061;49.068;12.058;2023-08-01T21:50:52;1.53;;;1.20;;
10041;SDS011;5061;49.068;12.058;2023-08-01T21:54:12;2.13;;;1.30;;
10041;SDS011;5061;49.068;12.058;2023-08-01T21:57:33;2.00;;;1.33;;
10041;SDS011;5061;49.068;12.058;2023-08-01T22:00:54;1.40;;;1.30;;
10041;SDS011;5061;49.068;12.058;2023-08-01T22:04:14;1.97;;;1.10;;
10041;SDS011;5061;49.068;12.058;2023-08-01T22:07:35;1.50;;;1.30;;
10041;SDS011;5061;49.068;12.058;2023-08-01T22:10:56;2.20;;;1.27;;
10041;SDS011;5061;49.068;12.058;2023-08-01T22:14:17;1.83;;;1.40;;
10041;SDS011;5061;49.068;12.058;2023-08-01T22:17:40;2.17;;;1.30;;
10041;SDS011;5061;49.068;12.058;2023-08-01T22:21:00;1.73;;;1.30;;
10041;SDS011;5061;49.068;12.058;2023-08-01T22:24:21;1.10;;;1.00;;
10041;SDS011;5061;49.068;12.058;2023-08-01T22:27:41;1.50;;;1.40;;
10041;SDS011;5061;49.068;12.058;2023-08-01T22:31:02;1.60;;;1.20;;
10041;SDS011;5061;49.068;12.058;2023-08-01T22:34:23;1.33;;;1.00;;
10041;SDS011;5061;49.068;12.058;2023-08-01T22:37:45;1.70;;;1.10;;
10041;SDS011;5061;49.068;12.058;2023-08-01T22:41:15;1.40;;;1.30;;
10041;SDS011;5061;49.068;12.058;2023-08-01T22:44:36;1.60;;;1.20;;
10041;SDS011;5061;49.068;12.058;2023-08-01T22:47:57;1.07;;;0.87;;
10041;SDS011;5061;49.068;12.058;2023-08-01T22:51:18;1.13;;;1.03;;
10041;SDS011;5061;49.068;12.058;2023-08-01T22:54:39;3.80;;;1.53;;
10041;SDS011;5061;49.068;12.058;2023-08-01T22:57:59;1.20;;;1.10;;
10041;SDS011;5061;49.068;12.058;2023-08-01T23:01:20;1.60;;;1.07;;
10041;SDS011;5061;49.068;12.058;2023-08-01T23:04:40;1.00;;;0.90;;
10041;SDS011;5061;49.068;12.058;2023-08-01T23:08:01;1.73;;;1.00;;
10041;SDS011;5061;49.068;12.058;2023-08-01T23:11:22;1.53;;;1.20;;
10041;SDS011;5061;49.068;12.058;2023-08-01T23:14:42;1.10;;;1.00;;
10041;SDS011;5061;49.068;12.058;2023-08-01T23:18:03;2.17;;;1.23;;
10041;SDS011;5061;49.068;12.058;2023-08-01T23:21:24;2.70;;;1.43;;
10041;SDS011;5061;49.068;12.058;2023-08-01T23:24:44;1.57;;;1.47;;